createdAt,value
2022-09-27T00:00:01.207Z,69.60
2022-09-27T00:03:24.206Z,70.24
2022-09-27T00:06:29.821Z,70.62
2022-09-27T00:09:32.695Z,70.50
2022-09-27T00:12:36.116Z,70.05
2022-09-27T00:15:39.009Z,70.30
2022-09-27T00:18:41.864Z,70.05
2022-09-27T00:21:45.612Z,69.89
2022-09-27T00:24:48.392Z,69.97
2022-09-27T00:27:51.483Z,69.74
2022-09-27T00:30:54.622Z,69.66
2022-09-27T00:34:00.602Z,69.74
2022-09-27T00:37:03.948Z,69.75
2022-09-27T00:40:07.181Z,69.86
2022-09-27T00:43:21.498Z,69.76
2022-09-27T00:46:30.268Z,69.90
2022-09-27T00:49:36.133Z,69.80
2022-09-27T00:52:56.153Z,70.09
2022-09-27T00:56:08.518Z,69.75
2022-09-27T00:59:22.999Z,69.76
2022-09-27T01:02:26.014Z,69.86
2022-09-27T01:05:29.882Z,69.57
2022-09-27T01:08:33.047Z,69.58
2022-09-27T01:11:36.564Z,69.34
2022-09-27T01:14:57.653Z,69.39
2022-09-27T01:18:40.027Z,69.65
2022-09-27T01:22:06.190Z,69.67
2022-09-27T01:25:32.603Z,69.69
2022-09-27T01:29:32.641Z,69.68
2022-09-27T01:32:50.512Z,69.78
2022-09-27T01:36:00.393Z,69.70
2022-09-27T01:39:17.361Z,69.82
2022-09-27T01:42:36.050Z,70.04
2022-09-27T01:45:44.260Z,70.02
2022-09-27T01:48:50.695Z,69.77
2022-09-27T01:52:01.528Z,69.67
2022-09-27T01:55:08.413Z,69.49
2022-09-27T01:58:21.621Z,69.71
2022-09-27T02:01:27.621Z,69.59
2022-09-27T02:04:33.505Z,69.62
2022-09-27T02:07:44.702Z,69.61
2022-09-27T02:10:49.545Z,69.72
2022-09-27T02:14:17.084Z,69.73
2022-09-27T02:17:42.399Z,69.59
2022-09-27T02:20:55.939Z,69.58
2022-09-27T02:24:03.711Z,69.76
2022-09-27T02:27:18.601Z,69.85
2022-09-27T02:30:21.953Z,69.61
2022-09-27T02:33:28.518Z,69.58
2022-09-27T02:36:31.514Z,69.61
2022-09-27T02:39:34.429Z,69.57
2022-09-27T02:42:37.894Z,69.40
2022-09-27T02:45:51.681Z,69.34
2022-09-27T02:49:23.660Z,69.19
2022-09-27T02:53:08.234Z,69.34
2022-09-27T02:56:14.072Z,69.27
2022-09-27T02:59:59.561Z,69.20
2022-09-27T03:03:08.446Z,69.46
2022-09-27T03:06:16.647Z,69.28
2022-09-27T03:09:22.946Z,69.46
2022-09-27T03:12:29.173Z,69.41
2022-09-27T03:15:32.459Z,69.53
2022-09-27T03:18:35.287Z,69.48
2022-09-27T03:21:39.344Z,69.38
2022-09-27T03:24:45.906Z,69.18
2022-09-27T03:27:48.819Z,69.34
2022-09-27T03:30:52.533Z,69.36
2022-09-27T03:33:57.343Z,69.59
2022-09-27T03:37:00.948Z,69.56
2022-09-27T03:40:04.159Z,69.30
2022-09-27T03:43:06.987Z,69.39
2022-09-27T03:46:09.868Z,69.39
2022-09-27T03:49:12.912Z,69.59
2022-09-27T03:52:16.940Z,69.77
2022-09-27T03:55:21.847Z,69.86
2022-09-27T03:58:25.486Z,69.65
2022-09-27T04:01:29.073Z,69.67
2022-09-27T04:04:32.174Z,69.46
2022-09-27T04:07:35.304Z,69.47
2022-09-27T04:10:38.557Z,69.54
2022-09-27T04:13:41.579Z,69.60
2022-09-27T04:16:46.033Z,69.69
2022-09-27T04:19:50.531Z,69.97
2022-09-27T04:22:53.689Z,69.86
2022-09-27T04:25:56.715Z,70.36
2022-09-27T04:28:59.822Z,70.29
2022-09-27T04:32:02.656Z,70.29
2022-09-27T04:35:24.603Z,70.18
2022-09-27T04:38:28.971Z,70.22
2022-09-27T04:41:32.230Z,69.99
2022-09-27T04:44:35.222Z,70.10
2022-09-27T04:47:43.251Z,70.17
2022-09-27T04:50:46.251Z,69.96
2022-09-27T04:53:49.085Z,69.86
2022-09-27T04:56:51.991Z,69.89
2022-09-27T04:59:54.862Z,69.77
2022-09-27T05:02:57.923Z,69.68
2022-09-27T05:06:01.499Z,69.82
2022-09-27T05:09:04.442Z,69.90
2022-09-27T05:12:08.932Z,69.73
2022-09-27T05:15:11.870Z,69.54
2022-09-27T05:18:14.745Z,69.47
2022-09-27T05:21:17.568Z,69.53
2022-09-27T05:24:21.531Z,69.72
2022-09-27T05:27:24.541Z,69.79
2022-09-27T05:30:28.009Z,69.86
2022-09-27T05:33:31.552Z,69.88
2022-09-27T05:36:34.410Z,69.84
2022-09-27T05:39:37.304Z,69.76
2022-09-27T05:42:40.348Z,69.78
2022-09-27T05:45:44.324Z,69.72
2022-09-27T05:48:47.199Z,69.86
2022-09-27T05:51:49.907Z,69.71
2022-09-27T05:54:52.890Z,69.65
2022-09-27T05:57:57.813Z,69.59
2022-09-27T06:01:00.889Z,69.72
2022-09-27T06:04:05.627Z,69.60
2022-09-27T06:07:08.422Z,69.81
2022-09-27T06:10:11.273Z,69.84
2022-09-27T06:13:20.123Z,69.69
2022-09-27T06:16:22.936Z,70.03
2022-09-27T06:19:26.162Z,70.11
2022-09-27T06:22:31.998Z,70.07
2022-09-27T06:25:36.423Z,70.07
2022-09-27T06:28:39.277Z,70.12
2022-09-27T06:31:42.073Z,69.91
2022-09-27T06:34:44.934Z,69.86
2022-09-27T06:37:47.829Z,69.73
2022-09-27T06:40:50.832Z,69.56
2022-09-27T06:43:53.733Z,69.58
2022-09-27T06:46:56.963Z,69.88
2022-09-27T06:50:00.009Z,70.00
2022-09-27T06:53:05.827Z,69.77
2022-09-27T06:56:08.693Z,69.65
2022-09-27T06:59:30.132Z,69.73
2022-09-27T07:02:32.956Z,69.91
2022-09-27T07:05:36.267Z,70.03
2022-09-27T07:08:39.023Z,70.06
2022-09-27T07:11:42.410Z,70.06
2022-09-27T07:14:45.216Z,69.88
2022-09-27T07:17:59.057Z,69.93
2022-09-27T07:21:02.295Z,69.90
2022-09-27T07:24:05.219Z,70.02
2022-09-27T07:27:08.045Z,70.06
2022-09-27T07:30:13.084Z,69.84
2022-09-27T07:33:16.030Z,69.81
2022-09-27T07:36:18.909Z,69.88
2022-09-27T07:39:23.952Z,70.24
2022-09-27T07:42:29.202Z,70.13
2022-09-27T07:45:32.912Z,69.99
2022-09-27T07:48:35.857Z,70.11
2022-09-27T07:51:38.711Z,70.02
2022-09-27T07:54:41.513Z,69.94
2022-09-27T07:57:46.962Z,70.06
2022-09-27T08:00:51.048Z,70.38
2022-09-27T08:03:54.154Z,70.37
2022-09-27T08:06:56.865Z,70.25
2022-09-27T08:10:28.714Z,69.96
2022-09-27T08:13:33.711Z,70.10
2022-09-27T08:16:36.993Z,70.22
2022-09-27T08:19:40.915Z,70.35
2022-09-27T08:22:43.958Z,70.46
2022-09-27T08:25:53.947Z,70.51
2022-09-27T08:28:56.850Z,70.48
2022-09-27T08:31:59.923Z,70.50
2022-09-27T08:35:02.818Z,70.94
2022-09-27T08:38:06.520Z,70.73
2022-09-27T08:41:33.551Z,70.88
2022-09-27T08:44:51.433Z,70.93
2022-09-27T08:48:00.511Z,71.58
2022-09-27T08:51:06.059Z,71.62
2022-09-27T08:54:20.193Z,71.86
2022-09-27T08:57:25.429Z,72.11
2022-09-27T09:00:30.088Z,71.99
2022-09-27T09:03:36.599Z,71.80
2022-09-27T09:07:27.463Z,71.98
2022-09-27T09:10:58.047Z,72.27
2022-09-27T09:14:23.662Z,72.03
2022-09-27T09:17:47.920Z,71.69
2022-09-27T09:21:15.730Z,71.48
2022-09-27T09:24:45.689Z,71.51
2022-09-27T09:28:10.799Z,72.22
2022-09-27T09:31:32.863Z,71.65
2022-09-27T09:34:51.525Z,71.55
2022-09-27T09:37:58.956Z,71.60
2022-09-27T09:41:16.825Z,71.74
2022-09-27T09:44:26.400Z,71.79
2022-09-27T09:47:30.967Z,71.49
2022-09-27T09:50:42.708Z,71.30
2022-09-27T09:53:54.655Z,71.57
2022-09-27T09:57:18.834Z,71.42
2022-09-27T10:00:21.767Z,71.47
2022-09-27T10:03:25.498Z,71.57
2022-09-27T10:06:30.476Z,71.63
2022-09-27T10:09:34.033Z,71.48
2022-09-27T10:12:37.768Z,71.36
2022-09-27T10:15:41.438Z,71.59
2022-09-27T10:18:49.710Z,71.85
2022-09-27T10:21:53.123Z,72.01
2022-09-27T10:25:04.079Z,72.25
2022-09-27T10:28:07.207Z,72.07
2022-09-27T10:31:13.727Z,72.29
2022-09-27T10:34:28.159Z,72.36
2022-09-27T10:37:31.920Z,72.54
2022-09-27T10:40:35.473Z,72.34
2022-09-27T10:43:38.310Z,72.00
2022-09-27T10:46:42.819Z,71.80
2022-09-27T10:49:45.915Z,71.74
2022-09-27T10:52:49.941Z,71.72
2022-09-27T10:55:53.137Z,71.61
2022-09-27T10:58:58.332Z,71.51
2022-09-27T11:02:01.629Z,71.24
2022-09-27T11:05:31.344Z,71.14
2022-09-27T11:08:35.521Z,71.24
2022-09-27T11:11:38.419Z,71.09
2022-09-27T11:14:43.068Z,70.94
2022-09-27T11:18:01.380Z,70.85
2022-09-27T11:21:10.229Z,70.86
2022-09-27T11:24:35.486Z,71.05
2022-09-27T11:28:18.482Z,71.08
2022-09-27T11:31:52.517Z,70.98
2022-09-27T11:35:08.442Z,70.73
2022-09-27T11:38:51.071Z,70.61
2022-09-27T11:42:09.642Z,70.68
2022-09-27T11:46:10.772Z,70.65
2022-09-27T11:49:30.705Z,70.64
2022-09-27T11:52:50.383Z,70.46
2022-09-27T11:55:56.033Z,70.47
2022-09-27T11:59:05.580Z,70.23
2022-09-27T12:02:36.933Z,69.71
2022-09-27T12:06:08.505Z,70.05
2022-09-27T12:09:20.661Z,70.00
2022-09-27T12:12:28.500Z,69.80
2022-09-27T12:15:36.428Z,69.88
2022-09-27T12:18:41.860Z,69.78
2022-09-27T12:21:45.447Z,69.79
2022-09-27T12:24:49.167Z,69.79
2022-09-27T12:28:06.970Z,69.81
2022-09-27T12:31:34.526Z,69.86
2022-09-27T12:35:02.431Z,69.62
2022-09-27T12:38:10.036Z,69.58
2022-09-27T12:41:19.894Z,69.50
2022-09-27T12:44:22.667Z,69.51
2022-09-27T12:47:42.016Z,69.44
2022-09-27T12:50:47.824Z,69.28
2022-09-27T12:54:09.443Z,69.26
2022-09-27T12:57:24.029Z,69.26
2022-09-27T13:00:38.357Z,69.19
2022-09-27T13:03:56.445Z,68.96
2022-09-27T13:07:11.442Z,68.74
2022-09-27T13:10:33.603Z,68.53
2022-09-27T13:13:39.945Z,68.38
2022-09-27T13:16:44.536Z,68.40
2022-09-27T13:19:47.361Z,68.11
2022-09-27T13:22:50.568Z,68.08
2022-09-27T13:26:00.908Z,68.16
2022-09-27T13:29:04.859Z,68.06
2022-09-27T13:32:22.725Z,68.26
2022-09-27T13:35:27.195Z,67.86
2022-09-27T13:38:30.373Z,68.75
2022-09-27T13:41:56.490Z,70.51
2022-09-27T13:45:24.636Z,70.80
2022-09-27T13:48:44.993Z,72.22
2022-09-27T13:51:56.351Z,72.85
2022-09-27T13:55:01.023Z,72.78
2022-09-27T13:58:15.460Z,72.70
2022-09-27T14:01:28.854Z,72.94
2022-09-27T14:05:00.232Z,73.05
2022-09-27T14:08:05.146Z,73.51
2022-09-27T14:11:14.075Z,73.78
2022-09-27T14:14:22.487Z,74.20
2022-09-27T14:17:26.448Z,73.56
2022-09-27T14:20:42.776Z,73.92
2022-09-27T14:23:45.632Z,74.04
2022-09-27T14:26:50.350Z,73.59
2022-09-27T14:30:01.871Z,73.85
2022-09-27T14:33:06.076Z,74.28
2022-09-27T14:36:36.343Z,74.20
2022-09-27T14:39:39.484Z,74.52
2022-09-27T14:42:42.439Z,74.70
2022-09-27T14:45:48.499Z,73.90
2022-09-27T14:48:51.558Z,73.78
2022-09-27T14:51:56.460Z,73.77
2022-09-27T14:55:02.800Z,74.30
2022-09-27T14:58:35.724Z,74.04
2022-09-27T15:01:40.251Z,74.23
2022-09-27T15:04:47.842Z,73.98
2022-09-27T15:07:52.440Z,74.15
2022-09-27T15:10:56.035Z,74.42
2022-09-27T15:14:02.081Z,74.20
2022-09-27T15:17:06.527Z,74.28
2022-09-27T15:20:22.384Z,74.31
2022-09-27T15:23:37.066Z,74.39
2022-09-27T15:26:45.273Z,73.89
2022-09-27T15:29:58.651Z,73.86
2022-09-27T15:33:02.526Z,73.70
2022-09-27T15:36:08.572Z,73.50
2022-09-27T15:39:21.421Z,74.26
2022-09-27T15:42:24.952Z,74.03
2022-09-27T15:45:34.086Z,73.68
2022-09-27T15:48:37.866Z,73.52
2022-09-27T15:51:44.823Z,73.86
2022-09-27T15:54:49.658Z,73.94
2022-09-27T15:57:59.592Z,73.97
2022-09-27T16:01:08.296Z,73.84
2022-09-27T16:04:11.305Z,73.81
2022-09-27T16:07:15.186Z,73.61
2022-09-27T16:10:24.472Z,73.43
2022-09-27T16:13:32.502Z,73.22
2022-09-27T16:16:35.956Z,73.17
2022-09-27T16:19:39.578Z,73.71
2022-09-27T16:22:42.541Z,73.50
2022-09-27T16:25:45.375Z,73.50
2022-09-27T16:28:49.171Z,73.30
2022-09-27T16:31:53.858Z,73.24
2022-09-27T16:34:57.578Z,73.38
2022-09-27T16:38:00.494Z,73.46
2022-09-27T16:41:04.076Z,73.29
2022-09-27T16:44:09.046Z,72.99
2022-09-27T16:47:11.897Z,73.35
2022-09-27T16:50:33.826Z,73.74
2022-09-27T16:53:36.733Z,73.61
2022-09-27T16:56:39.878Z,73.89
2022-09-27T16:59:43.210Z,74.00
2022-09-27T17:02:49.388Z,73.90
2022-09-27T17:05:52.679Z,73.79
2022-09-27T17:08:56.256Z,74.04
2022-09-27T17:11:59.301Z,73.92
2022-09-27T17:15:05.991Z,73.69
2022-09-27T17:18:08.860Z,73.78
2022-09-27T17:21:12.330Z,73.99
2022-09-27T17:24:15.599Z,73.73
2022-09-27T17:27:20.949Z,73.59
2022-09-27T17:30:26.337Z,74.59
2022-09-27T17:33:29.331Z,74.75
2022-09-27T17:36:35.623Z,75.14
2022-09-27T17:39:38.482Z,75.30
2022-09-27T17:42:41.337Z,75.45
2022-09-27T17:45:44.176Z,75.22
2022-09-27T17:49:07.024Z,74.96
2022-09-27T17:52:10.048Z,74.82
2022-09-27T17:55:15.971Z,74.42
2022-09-27T17:58:19.879Z,74.47
2022-09-27T18:01:24.717Z,74.36
2022-09-27T18:04:27.518Z,74.20
2022-09-27T18:07:34.397Z,74.11
2022-09-27T18:10:40.500Z,74.26
2022-09-27T18:13:45.334Z,74.23
2022-09-27T18:16:48.178Z,74.47
2022-09-27T18:19:54.262Z,74.37
2022-09-27T18:22:58.332Z,74.46
2022-09-27T18:26:03.408Z,74.93
2022-09-27T18:29:10.344Z,74.88
2022-09-27T18:32:13.827Z,74.98
2022-09-27T18:35:17.198Z,74.69
2022-09-27T18:38:20.502Z,74.71
2022-09-27T18:41:25.684Z,74.66
2022-09-27T18:44:28.625Z,74.73
2022-09-27T18:47:31.625Z,74.89
2022-09-27T18:50:36.622Z,75.17
2022-09-27T18:53:39.892Z,75.63
2022-09-27T18:56:42.794Z,75.81
2022-09-27T18:59:49.436Z,75.54
2022-09-27T19:02:52.283Z,75.34
2022-09-27T19:06:00.338Z,75.04
2022-09-27T19:09:04.907Z,75.36
2022-09-27T19:12:07.867Z,75.58
2022-09-27T19:15:11.102Z,75.52
2022-09-27T19:18:13.896Z,75.22
2022-09-27T19:21:22.440Z,75.28
2022-09-27T19:24:25.676Z,74.95
2022-09-27T19:27:31.484Z,74.39
2022-09-27T19:30:34.467Z,74.11
2022-09-27T19:33:37.387Z,73.97
2022-09-27T19:36:40.752Z,73.96
2022-09-27T19:39:44.161Z,73.96
2022-09-27T19:42:52.227Z,73.83
2022-09-27T19:45:55.509Z,73.75
2022-09-27T19:48:58.702Z,73.65
2022-09-27T19:52:02.271Z,73.49
2022-09-27T19:55:06.029Z,73.28
2022-09-27T19:58:09.063Z,73.46
2022-09-27T20:01:16.153Z,73.39
2022-09-27T20:04:22.734Z,73.50
2022-09-27T20:07:33.388Z,73.27
2022-09-27T20:10:36.647Z,73.30
2022-09-27T20:13:47.612Z,73.26
2022-09-27T20:16:50.982Z,73.21
2022-09-27T20:19:54.079Z,73.28
2022-09-27T20:22:56.871Z,73.28
2022-09-27T20:26:01.516Z,73.36
2022-09-27T20:29:05.849Z,73.55
2022-09-27T20:32:26.798Z,73.41
2022-09-27T20:35:34.736Z,73.28
2022-09-27T20:38:37.652Z,73.51
2022-09-27T20:41:49.637Z,73.70
2022-09-27T20:44:54.477Z,73.73
2022-09-27T20:47:57.444Z,73.67
2022-09-27T20:51:04.701Z,73.81
2022-09-27T20:54:12.003Z,73.66
2022-09-27T20:57:15.342Z,73.44
2022-09-27T21:00:18.852Z,73.65
2022-09-27T21:03:22.145Z,73.56
2022-09-27T21:06:25.268Z,73.66
2022-09-27T21:09:28.177Z,73.72
2022-09-27T21:12:31.192Z,73.73
2022-09-27T21:15:34.010Z,73.78
2022-09-27T21:18:37.343Z,73.77
2022-09-27T21:21:40.179Z,73.63
2022-09-27T21:24:44.277Z,73.80
2022-09-27T21:27:48.059Z,74.23
2022-09-27T21:30:51.955Z,74.17
2022-09-27T21:33:58.719Z,74.39
2022-09-27T21:37:03.242Z,74.46
2022-09-27T21:40:06.856Z,74.72
2022-09-27T21:43:09.744Z,74.71
2022-09-27T21:46:17.175Z,74.86
2022-09-27T21:49:19.970Z,74.76
2022-09-27T21:52:23.076Z,74.73
2022-09-27T21:55:26.208Z,74.55
2022-09-27T21:58:32.454Z,74.55
2022-09-27T22:01:36.065Z,74.37
2022-09-27T22:04:39.379Z,74.24
2022-09-27T22:07:42.156Z,74.41
2022-09-27T22:10:46.161Z,74.48
2022-09-27T22:13:49.852Z,74.49
2022-09-27T22:16:52.711Z,74.34
2022-09-27T22:19:55.520Z,74.54
2022-09-27T22:22:58.546Z,74.41
2022-09-27T22:26:16.170Z,74.08
2022-09-27T22:29:19.508Z,74.21
2022-09-27T22:32:22.832Z,74.28
2022-09-27T22:35:26.493Z,74.12
2022-09-27T22:38:30.853Z,74.44
2022-09-27T22:41:33.627Z,74.62
2022-09-27T22:44:37.073Z,74.51
2022-09-27T22:47:40.135Z,74.47
2022-09-27T22:50:43.046Z,74.35
2022-09-27T22:53:46.326Z,74.46
2022-09-27T22:56:57.355Z,74.64
2022-09-27T23:00:00.421Z,74.42
2022-09-27T23:03:03.321Z,74.12
2022-09-27T23:06:07.757Z,73.96
2022-09-27T23:09:10.576Z,73.70
2022-09-27T23:12:14.799Z,74.30
2022-09-27T23:15:18.581Z,74.18
2022-09-27T23:18:21.499Z,74.02
2022-09-27T23:21:26.457Z,74.18
2022-09-27T23:24:29.721Z,74.02
2022-09-27T23:27:47.729Z,74.13
2022-09-27T23:30:51.208Z,74.05
2022-09-27T23:33:54.661Z,74.03
2022-09-27T23:36:57.699Z,73.81
2022-09-27T23:40:00.605Z,73.99
2022-09-27T23:43:04.443Z,73.92
2022-09-27T23:46:09.200Z,73.74
2022-09-27T23:49:14.439Z,74.02
2022-09-27T23:52:18.960Z,74.18
2022-09-27T23:55:21.918Z,73.90
2022-09-27T23:58:25.174Z,74.10
